sensor_id;sensor_type;location;lat;lon;timestamp;pressure;altitude;pressure_sealevel;temperature;humidity
6433;BME280;3249;42.690;23.260;2023-04-05T00:01:42;93732.97;;;-0.41;100.00
6433;BME280;3249;42.690;23.260;2023-04-05T00:04:15;93729.16;;;-0.37;100.00
6433;BME280;3249;42.690;23.260;2023-04-05T00:06:46;93724.63;;;-0.42;100.00
6433;BME280;3249;42.690;23.260;2023-04-05T00:09:18;93738.94;;;-0.34;100.00
6433;BME280;3249;42.690;23.260;2023-04-05T00:11:47;93735.63;;;-0.35;100.00
6433;BME280;3249;42.690;23.260;2023-04-05T00:14:16;93736.38;;;-0.26;100.00
6433;BME280;3249;42.690;23.260;2023-04-05T00:16:48;93727.13;;;-0.34;100.00
6433;BME280;3249;42.690;23.260;2023-04-05T00:19:17;93728.97;;;-0.28;100.00
6433;BME280;3249;42.690;23.260;2023-04-05T00:21:48;93727.06;;;-0.26;100.00
6433;BME280;3249;42.690;23.260;2023-04-05T00:24:19;93738.47;;;-0.30;100.00
6433;BME280;3249;42.690;23.260;2023-04-05T00:26:49;93728.03;;;-0.35;100.00
6433;BME280;3249;42.690;23.260;2023-04-05T00:29:18;93730.09;;;-0.30;100.00
6433;BME280;3249;42.690;23.260;2023-04-05T00:31:50;93738.75;;;-0.25;100.00
6433;BME280;3249;42.690;23.260;2023-04-05T00:34:19;93737.47;;;-0.21;100.00
6433;BME280;3249;42.690;23.260;2023-04-05T00:36:48;93747.13;;;-0.24;100.00
6433;BME280;3249;42.690;23.260;2023-04-05T00:39:17;93727.59;;;-0.38;100.00
6433;BME280;3249;42.690;23.260;2023-04-05T00:41:46;93737.25;;;-0.42;100.00
6433;BME280;3249;42.690;23.260;2023-04-05T00:44:15;93735.34;;;-0.40;100.00
6433;BME280;3249;42.690;23.260;2023-04-05T00:46:44;93732.00;;;-0.40;100.00
6433;BME280;3249;42.690;23.260;2023-04-05T00:49:16;93696.09;;;-0.66;100.00
6433;BME280;3249;42.690;23.260;2023-04-05T00:51:46;93734.88;;;-0.43;100.00
6433;BME280;3249;42.690;23.260;2023-04-05T00:54:17;93727.94;;;-0.49;100.00
6433;BME280;3249;42.690;23.260;2023-04-05T00:56:47;93742.31;;;-0.42;100.00
6433;BME280;3249;42.690;23.260;2023-04-05T00:59:18;93742.78;;;-0.46;100.00
6433;BME280;3249;42.690;23.260;2023-04-05T01:01:48;93739.47;;;-0.47;100.00
6433;BME280;3249;42.690;23.260;2023-04-05T01:04:24;93736.78;;;-0.45;100.00
6433;BME280;3249;42.690;23.260;2023-04-05T01:07:04;93740.09;;;-0.45;100.00
6433;BME280;3249;42.690;23.260;2023-04-05T01:09:44;93741.66;;;-0.44;100.00
6433;BME280;3249;42.690;23.260;2023-04-05T01:12:16;93746.13;;;-0.46;100.00
6433;BME280;3249;42.690;23.260;2023-04-05T01:14:47;93745.75;;;-0.43;100.00
6433;BME280;3249;42.690;23.260;2023-04-05T01:17:18;93742.25;;;-0.26;100.00
6433;BME280;3249;42.690;23.260;2023-04-05T01:19:52;93752.63;;;-0.13;100.00
6433;BME280;3249;42.690;23.260;2023-04-05T01:22:53;93754.34;;;-0.13;100.00
6433;BME280;3249;42.690;23.260;2023-04-05T01:25:57;93751.69;;;-0.20;100.00
6433;BME280;3249;42.690;23.260;2023-04-05T01:28:58;93721.28;;;-0.42;100.00
6433;BME280;3249;42.690;23.260;2023-04-05T01:31:40;93747.31;;;-0.26;100.00
6433;BME280;3249;42.690;23.260;2023-04-05T01:34:16;93761.19;;;-0.22;100.00
6433;BME280;3249;42.690;23.260;2023-04-05T01:36:49;93760.72;;;-0.25;100.00
6433;BME280;3249;42.690;23.260;2023-04-05T01:39:23;93766.88;;;-0.28;100.00
6433;BME280;3249;42.690;23.260;2023-04-05T01:41:57;93761.47;;;-0.17;100.00
6433;BME280;3249;42.690;23.260;2023-04-05T01:44:26;93757.53;;;-0.19;100.00
6433;BME280;3249;42.690;23.260;2023-04-05T01:46:58;93758.91;;;-0.09;100.00
6433;BME280;3249;42.690;23.260;2023-04-05T01:49:27;93760.34;;;-0.14;100.00
6433;BME280;3249;42.690;23.260;2023-04-05T01:51:56;93759.56;;;-0.15;100.00
6433;BME280;3249;42.690;23.260;2023-04-05T01:54:26;93763.69;;;-0.14;100.00
6433;BME280;3249;42.690;23.260;2023-04-05T01:56:55;93760.47;;;-0.08;100.00
6433;BME280;3249;42.690;23.260;2023-04-05T01:59:24;93756.56;;;-0.10;100.00
6433;BME280;3249;42.690;23.260;2023-04-05T02:01:53;93721.69;;;-0.31;100.00
6433;BME280;3249;42.690;23.260;2023-04-05T02:04:24;93758.13;;;-0.09;100.00
6433;BME280;3249;42.690;23.260;2023-04-05T02:06:53;93762.13;;;-0.23;100.00
6433;BME280;3249;42.690;23.260;2023-04-05T02:09:22;93758.94;;;-0.17;100.00
6433;BME280;3249;42.690;23.260;2023-04-05T02:11:51;93760.03;;;-0.11;100.00
6433;BME280;3249;42.690;23.260;2023-04-05T02:14:21;93761.72;;;-0.04;100.00
6433;BME280;3249;42.690;23.260;2023-04-05T02:16:50;93760.72;;;0.05;100.00
6433;BME280;3249;42.690;23.260;2023-04-05T02:19:24;93766.09;;;0.11;100.00
6433;BME280;3249;42.690;23.260;2023-04-05T02:21:54;93772.09;;;0.09;100.00
6433;BME280;3249;42.690;23.260;2023-04-05T02:24:23;93765.44;;;0.17;100.00
6433;BME280;3249;42.690;23.260;2023-04-05T02:26:52;93764.88;;;0.07;100.00
6433;BME280;3249;42.690;23.260;2023-04-05T02:29:23;93758.03;;;0.07;100.00
6433;BME280;3249;42.690;23.260;2023-04-05T02:31:52;93773.41;;;-0.03;100.00
6433;BME280;3249;42.690;23.260;2023-04-05T02:34:24;93772.81;;;-0.05;100.00
6433;BME280;3249;42.690;23.260;2023-04-05T02:36:53;93771.69;;;-0.02;100.00
6433;BME280;3249;42.690;23.260;2023-04-05T02:39:22;93770.41;;;0.02;100.00
6433;BME280;3249;42.690;23.260;2023-04-05T02:41:51;93768.34;;;-0.03;100.00
6433;BME280;3249;42.690;23.260;2023-04-05T02:44:21;93758.25;;;-0.03;100.00
6433;BME280;3249;42.690;23.260;2023-04-05T02:46:52;93762.69;;;-0.05;100.00
6433;BME280;3249;42.690;23.260;2023-04-05T02:49:30;93762.00;;;0.01;100.00
6433;BME280;3249;42.690;23.260;2023-04-05T02:52:02;93749.09;;;-0.04;100.00
6433;BME280;3249;42.690;23.260;2023-04-05T02:54:31;93753.34;;;0.04;100.00
6433;BME280;3249;42.690;23.260;2023-04-05T02:57:02;93756.91;;;0.09;100.00
6433;BME280;3249;42.690;23.260;2023-04-05T02:59:41;93757.69;;;0.18;100.00
6433;BME280;3249;42.690;23.260;2023-04-05T03:02:10;93760.22;;;0.18;100.00
6433;BME280;3249;42.690;23.260;2023-04-05T03:04:42;93754.19;;;0.19;100.00
6433;BME280;3249;42.690;23.260;2023-04-05T03:07:14;93754.97;;;0.20;100.00
6433;BME280;3249;42.690;23.260;2023-04-05T03:09:46;93759.75;;;0.15;100.00
6433;BME280;3249;42.690;23.260;2023-04-05T03:12:16;93752.97;;;0.07;100.00
6433;BME280;3249;42.690;23.260;2023-04-05T03:14:46;93754.44;;;0.01;100.00
6433;BME280;3249;42.690;23.260;2023-04-05T03:17:18;93759.50;;;0.01;100.00
6433;BME280;3249;42.690;23.260;2023-04-05T03:19:59;93756.50;;;-0.02;100.00
6433;BME280;3249;42.690;23.260;2023-04-05T03:22:34;93752.25;;;-0.02;100.00
6433;BME280;3249;42.690;23.260;2023-04-05T03:25:05;93752.81;;;0.08;100.00
6433;BME280;3249;42.690;23.260;2023-04-05T03:27:41;93759.19;;;-0.04;100.00
6433;BME280;3249;42.690;23.260;2023-04-05T03:30:14;93748.13;;;-0.03;100.00
6433;BME280;3249;42.690;23.260;2023-04-05T03:32:57;93751.91;;;0.01;100.00
6433;BME280;3249;42.690;23.260;2023-04-05T03:35:51;93744.50;;;0.00;100.00
6433;BME280;3249;42.690;23.260;2023-04-05T03:38:21;93754.75;;;0.07;100.00
6433;BME280;3249;42.690;23.260;2023-04-05T03:41:03;93754.38;;;0.09;100.00
6433;BME280;3249;42.690;23.260;2023-04-05T03:43:34;93756.03;;;0.03;100.00
6433;BME280;3249;42.690;23.260;2023-04-05T03:46:03;93760.44;;;0.00;100.00
6433;BME280;3249;42.690;23.260;2023-04-05T03:48:32;93768.50;;;0.04;100.00
6433;BME280;3249;42.690;23.260;2023-04-05T03:51:03;93751.28;;;-0.01;100.00
6433;BME280;3249;42.690;23.260;2023-04-05T03:53:33;93770.66;;;0.15;100.00
6433;BME280;3249;42.690;23.260;2023-04-05T03:56:02;93771.41;;;0.24;100.00
6433;BME280;3249;42.690;23.260;2023-04-05T03:58:48;93763.56;;;0.11;100.00
6433;BME280;3249;42.690;23.260;2023-04-05T04:01:23;93771.44;;;0.16;100.00
6433;BME280;3249;42.690;23.260;2023-04-05T04:03:53;93775.22;;;0.20;100.00
6433;BME280;3249;42.690;23.260;2023-04-05T04:06:26;93781.53;;;0.24;100.00
6433;BME280;3249;42.690;23.260;2023-04-05T04:08:56;93775.50;;;0.25;100.00
6433;BME280;3249;42.690;23.260;2023-04-05T04:11:27;93775.66;;;0.23;100.00
6433;BME280;3249;42.690;23.260;2023-04-05T04:14:00;93782.13;;;0.26;100.00
6433;BME280;3249;42.690;23.260;2023-04-05T04:16:44;93783.63;;;0.20;100.00
6433;BME280;3249;42.690;23.260;2023-04-05T04:19:29;93778.75;;;0.11;100.00
6433;BME280;3249;42.690;23.260;2023-04-05T04:22:07;93784.25;;;0.14;100.00
6433;BME280;3249;42.690;23.260;2023-04-05T04:24:56;93779.47;;;0.19;100.00
6433;BME280;3249;42.690;23.260;2023-04-05T04:27:50;93778.88;;;0.17;100.00
6433;BME280;3249;42.690;23.260;2023-04-05T04:30:45;93786.53;;;0.32;100.00
6433;BME280;3249;42.690;23.260;2023-04-05T04:33:40;93786.22;;;0.35;100.00
6433;BME280;3249;42.690;23.260;2023-04-05T04:36:12;93789.81;;;0.40;100.00
6433;BME280;3249;42.690;23.260;2023-04-05T04:38:54;93789.31;;;0.45;100.00
6433;BME280;3249;42.690;23.260;2023-04-05T04:41:43;93795.06;;;0.39;100.00
6433;BME280;3249;42.690;23.260;2023-04-05T04:44:31;93791.44;;;0.33;100.00
6433;BME280;3249;42.690;23.260;2023-04-05T04:47:13;93775.50;;;0.25;100.00
6433;BME280;3249;42.690;23.260;2023-04-05T04:49:47;93795.72;;;0.33;100.00
6433;BME280;3249;42.690;23.260;2023-04-05T04:52:16;93799.75;;;0.42;100.00
6433;BME280;3249;42.690;23.260;2023-04-05T04:54:48;93797.59;;;0.39;100.00
6433;BME280;3249;42.690;23.260;2023-04-05T04:57:17;93800.72;;;0.10;100.00
6433;BME280;3249;42.690;23.260;2023-04-05T04:59:46;93805.38;;;-0.02;100.00
6433;BME280;3249;42.690;23.260;2023-04-05T05:02:15;93795.25;;;-0.02;100.00
6433;BME280;3249;42.690;23.260;2023-04-05T05:04:44;93795.56;;;-0.05;100.00
6433;BME280;3249;42.690;23.260;2023-04-05T05:07:13;93797.75;;;0.07;100.00
6433;BME280;3249;42.690;23.260;2023-04-05T05:09:42;93794.88;;;0.09;100.00
6433;BME280;3249;42.690;23.260;2023-04-05T05:12:14;93804.81;;;0.11;100.00
6433;BME280;3249;42.690;23.260;2023-04-05T05:14:43;93803.84;;;0.20;100.00
6433;BME280;3249;42.690;23.260;2023-04-05T05:17:12;93808.69;;;0.30;100.00
6433;BME280;3249;42.690;23.260;2023-04-05T05:19:41;93810.72;;;0.34;100.00
6433;BME280;3249;42.690;23.260;2023-04-05T05:22:10;93814.53;;;0.30;100.00
6433;BME280;3249;42.690;23.260;2023-04-05T05:24:39;93811.75;;;0.17;100.00
6433;BME280;3249;42.690;23.260;2023-04-05T05:27:07;93822.16;;;0.22;100.00
6433;BME280;3249;42.690;23.260;2023-04-05T05:29:39;93814.69;;;0.29;100.00
6433;BME280;3249;42.690;23.260;2023-04-05T05:32:08;93814.53;;;0.30;100.00
6433;BME280;3249;42.690;23.260;2023-04-05T05:34:40;93824.31;;;0.41;100.00
6433;BME280;3249;42.690;23.260;2023-04-05T05:37:10;93811.81;;;0.40;100.00
6433;BME280;3249;42.690;23.260;2023-04-05T05:39:39;93807.50;;;0.48;100.00
6433;BME280;3249;42.690;23.260;2023-04-05T05:42:09;93809.50;;;0.53;100.00
6433;BME280;3249;42.690;23.260;2023-04-05T05:44:41;93814.69;;;0.59;100.00
6433;BME280;3249;42.690;23.260;2023-04-05T05:47:10;93813.91;;;0.59;100.00
6433;BME280;3249;42.690;23.260;2023-04-05T05:49:39;93813.56;;;0.62;100.00
6433;BME280;3249;42.690;23.260;2023-04-05T05:52:08;93809.56;;;0.67;100.00
6433;BME280;3249;42.690;23.260;2023-04-05T05:54:37;93807.78;;;0.76;100.00
6433;BME280;3249;42.690;23.260;2023-04-05T05:57:06;93812.25;;;0.74;100.00
6433;BME280;3249;42.690;23.260;2023-04-05T05:59:35;93812.13;;;0.90;100.00
6433;BME280;3249;42.690;23.260;2023-04-05T06:02:07;93810.78;;;1.02;100.00
6433;BME280;3249;42.690;23.260;2023-04-05T06:04:36;93812.69;;;1.00;100.00
6433;BME280;3249;42.690;23.260;2023-04-05T06:07:05;93817.41;;;1.03;100.00
6433;BME280;3249;42.690;23.260;2023-04-05T06:09:34;93820.16;;;1.16;100.00
6433;BME280;3249;42.690;23.260;2023-04-05T06:12:04;93819.91;;;1.25;100.00
6433;BME280;3249;42.690;23.260;2023-04-05T06:14:33;93816.34;;;1.34;100.00
6433;BME280;3249;42.690;23.260;2023-04-05T06:17:01;93804.69;;;1.11;100.00
6433;BME280;3249;42.690;23.260;2023-04-05T06:19:33;93816.06;;;1.15;100.00
6433;BME280;3249;42.690;23.260;2023-04-05T06:22:02;93821.78;;;1.09;100.00
6433;BME280;3249;42.690;23.260;2023-04-05T06:24:31;93822.41;;;1.11;100.00
6433;BME280;3249;42.690;23.260;2023-04-05T06:27:00;93826.34;;;1.13;100.00
6433;BME280;3249;42.690;23.260;2023-04-05T06:29:29;93828.38;;;1.18;100.00
6433;BME280;3249;42.690;23.260;2023-04-05T06:31:58;93837.34;;;1.28;100.00
6433;BME280;3249;42.690;23.260;2023-04-05T06:34:27;93819.88;;;1.48;100.00
6433;BME280;3249;42.690;23.260;2023-04-05T06:36:59;93838.44;;;1.63;100.00
6433;BME280;3249;42.690;23.260;2023-04-05T06:39:28;93832.88;;;1.67;100.00
6433;BME280;3249;42.690;23.260;2023-04-05T06:41:57;93842.94;;;1.90;100.00
6433;BME280;3249;42.690;23.260;2023-04-05T06:44:36;93843.28;;;2.01;100.00
6433;BME280;3249;42.690;23.260;2023-04-05T06:47:05;93852.47;;;2.17;100.00
6433;BME280;3249;42.690;23.260;2023-04-05T06:49:34;93852.28;;;2.04;100.00
6433;BME280;3249;42.690;23.260;2023-04-05T06:52:05;93853.97;;;1.97;100.00
6433;BME280;3249;42.690;23.260;2023-04-05T06:54:36;93869.19;;;2.11;100.00
6433;BME280;3249;42.690;23.260;2023-04-05T06:57:06;93858.94;;;2.19;100.00
6433;BME280;3249;42.690;23.260;2023-04-05T06:59:35;93857.66;;;2.09;100.00
6433;BME280;3249;42.690;23.260;2023-04-05T07:02:04;93868.38;;;2.25;100.00
6433;BME280;3249;42.690;23.260;2023-04-05T07:04:33;93874.34;;;2.18;100.00
6433;BME280;3249;42.690;23.260;2023-04-05T07:07:05;93882.47;;;2.28;100.00
6433;BME280;3249;42.690;23.260;2023-04-05T07:09:34;93887.63;;;2.34;100.00
6433;BME280;3249;42.690;23.260;2023-04-05T07:12:05;93886.69;;;2.35;100.00
6433;BME280;3249;42.690;23.260;2023-04-05T07:14:36;93886.88;;;2.34;100.00
6433;BME280;3249;42.690;23.260;2023-04-05T07:17:05;93889.50;;;2.26;100.00
6433;BME280;3249;42.690;23.260;2023-04-05T07:19:34;93893.19;;;2.23;100.00
6433;BME280;3249;42.690;23.260;2023-04-05T07:22:06;93882.22;;;2.37;100.00
6433;BME280;3249;42.690;23.260;2023-04-05T07:24:35;93900.09;;;2.29;100.00
6433;BME280;3249;42.690;23.260;2023-04-05T07:27:04;93904.66;;;2.34;100.00
6433;BME280;3249;42.690;23.260;2023-04-05T07:29:33;93901.72;;;2.22;100.00
6433;BME280;3249;42.690;23.260;2023-04-05T07:32:05;93900.09;;;2.29;100.00
6433;BME280;3249;42.690;23.260;2023-04-05T07:34:35;93896.84;;;2.21;100.00
6433;BME280;3249;42.690;23.260;2023-04-05T07:37:07;93895.63;;;2.17;100.00
6433;BME280;3249;42.690;23.260;2023-04-05T07:39:36;93898.50;;;2.28;100.00
6433;BME280;3249;42.690;23.260;2023-04-05T07:42:05;93896.06;;;2.35;100.00
6433;BME280;3249;42.690;23.260;2023-04-05T07:44:33;93902.25;;;2.47;100.00
6433;BME280;3249;42.690;23.260;2023-04-05T07:47:02;93910.41;;;2.28;100.00
6433;BME280;3249;42.690;23.260;2023-04-05T07:49:31;93915.31;;;2.15;100.00
6433;BME280;3249;42.690;23.260;2023-04-05T07:52:02;93916.19;;;2.22;100.00
6433;BME280;3249;42.690;23.260;2023-04-05T07:54:34;93914.72;;;2.27;100.00
6433;BME280;3249;42.690;23.260;2023-04-05T07:57:04;93919.50;;;2.08;100.00
6433;BME280;3249;42.690;23.260;2023-04-05T07:59:34;93927.56;;;1.97;100.00
6433;BME280;3249;42.690;23.260;2023-04-05T08:02:02;93929.59;;;1.79;100.00
6433;BME280;3249;42.690;23.260;2023-04-05T08:04:31;93934.69;;;1.79;100.00
6433;BME280;3249;42.690;23.260;2023-04-05T08:07:00;93931.47;;;1.62;100.00
6433;BME280;3249;42.690;23.260;2023-04-05T08:09:29;93925.00;;;1.60;100.00
6433;BME280;3249;42.690;23.260;2023-04-05T08:12:01;93933.09;;;1.63;100.00
6433;BME280;3249;42.690;23.260;2023-04-05T08:14:31;93916.84;;;1.50;100.00
6433;BME280;3249;42.690;23.260;2023-04-05T08:17:00;93912.97;;;1.62;100.00
6433;BME280;3249;42.690;23.260;2023-04-05T08:19:29;93938.19;;;1.78;100.00
6433;BME280;3249;42.690;23.260;2023-04-05T08:21:58;93934.78;;;1.85;100.00
6433;BME280;3249;42.690;23.260;2023-04-05T08:24:27;93930.50;;;1.86;100.00
6433;BME280;3249;42.690;23.260;2023-04-05T08:26:56;93946.41;;;1.80;100.00
6433;BME280;3249;42.690;23.260;2023-04-05T08:29:28;93936.97;;;1.88;100.00
6433;BME280;3249;42.690;23.260;2023-04-05T08:31:59;93932.88;;;1.87;100.00
6433;BME280;3249;42.690;23.260;2023-04-05T08:34:30;93936.75;;;1.98;100.00
6433;BME280;3249;42.690;23.260;2023-04-05T08:36:59;93941.88;;;1.90;100.00
6433;BME280;3249;42.690;23.260;2023-04-05T08:39:28;93938.78;;;1.80;100.00
6433;BME280;3249;42.690;23.260;2023-04-05T08:42:03;93946.63;;;1.93;100.00
6433;BME280;3249;42.690;23.260;2023-04-05T08:44:36;93945.59;;;2.02;100.00
6433;BME280;3249;42.690;23.260;2023-04-05T08:47:18;93941.41;;;2.23;100.00
6433;BME280;3249;42.690;23.260;2023-04-05T08:49:47;93947.00;;;2.19;100.00
6433;BME280;3249;42.690;23.260;2023-04-05T08:52:17;93948.69;;;2.41;100.00
6433;BME280;3249;42.690;23.260;2023-04-05T08:54:46;93955.25;;;2.50;100.00
6433;BME280;3249;42.690;23.260;2023-04-05T08:57:15;93949.81;;;2.38;100.00
6433;BME280;3249;42.690;23.260;2023-04-05T08:59:45;93966.00;;;2.52;100.00
6433;BME280;3249;42.690;23.260;2023-04-05T09:02:18;93960.75;;;2.53;100.00
6433;BME280;3249;42.690;23.260;2023-04-05T09:04:50;93964.34;;;2.59;100.00
6433;BME280;3249;42.690;23.260;2023-04-05T09:07:20;93948.06;;;2.53;100.00
6433;BME280;3249;42.690;23.260;2023-04-05T09:09:52;93969.59;;;2.43;100.00
6433;BME280;3249;42.690;23.260;2023-04-05T09:12:24;93967.06;;;2.57;100.00
6433;BME280;3249;42.690;23.260;2023-04-05T09:14:55;93970.56;;;2.71;100.00
6433;BME280;3249;42.690;23.260;2023-04-05T09:17:28;93940.69;;;2.44;100.00
6433;BME280;3249;42.690;23.260;2023-04-05T09:19:58;93974.44;;;2.67;100.00
6433;BME280;3249;42.690;23.260;2023-04-05T09:22:27;93948.44;;;2.65;100.00
6433;BME280;3249;42.690;23.260;2023-04-05T09:24:56;93972.75;;;2.30;100.00
6433;BME280;3249;42.690;23.260;2023-04-05T09:27:26;93969.09;;;2.62;100.00
6433;BME280;3249;42.690;23.260;2023-04-05T09:30:01;93957.22;;;2.11;100.00
6433;BME280;3249;42.690;23.260;2023-04-05T09:32:53;93943.03;;;2.02;100.00
6433;BME280;3249;42.690;23.260;2023-04-05T09:35:24;93947.19;;;2.46;100.00
6433;BME280;3249;42.690;23.260;2023-04-05T09:37:56;93950.03;;;2.00;100.00
6433;BME280;3249;42.690;23.260;2023-04-05T09:40:40;93958.31;;;2.60;100.00
6433;BME280;3249;42.690;23.260;2023-04-05T09:43:09;93962.69;;;2.66;100.00
6433;BME280;3249;42.690;23.260;2023-04-05T09:45:40;93964.72;;;2.85;100.00
6433;BME280;3249;42.690;23.260;2023-04-05T09:48:14;93958.66;;;2.86;100.00
6433;BME280;3249;42.690;23.260;2023-04-05T09:50:43;93957.34;;;2.75;100.00
6433;BME280;3249;42.690;23.260;2023-04-05T09:53:13;93948.16;;;2.74;100.00
6433;BME280;3249;42.690;23.260;2023-04-05T09:55:46;93963.66;;;2.79;100.00
6433;BME280;3249;42.690;23.260;2023-04-05T09:58:19;93967.16;;;2.64;100.00
6433;BME280;3249;42.690;23.260;2023-04-05T10:00:50;93970.56;;;2.71;100.00
6433;BME280;3249;42.690;23.260;2023-04-05T10:03:24;93974.78;;;2.64;100.00
6433;BME280;3249;42.690;23.260;2023-04-05T10:05:54;93960.66;;;2.61;100.00
6433;BME280;3249;42.690;23.260;2023-04-05T10:08:25;93961.13;;;2.65;100.00
6433;BME280;3249;42.690;23.260;2023-04-05T10:10:55;93966.00;;;2.52;100.00
6433;BME280;3249;42.690;23.260;2023-04-05T10:13:25;93958.31;;;2.45;100.00
6433;BME280;3249;42.690;23.260;2023-04-05T10:15:57;93957.94;;;2.05;100.00
6433;BME280;3249;42.690;23.260;2023-04-05T10:18:37;93963.03;;;2.34;100.00
6433;BME280;3249;42.690;23.260;2023-04-05T10:21:10;93964.91;;;2.69;100.00
6433;BME280;3249;42.690;23.260;2023-04-05T10:23:43;93959.66;;;3.06;100.00
6433;BME280;3249;42.690;23.260;2023-04-05T10:26:20;93957.50;;;3.59;100.00
6433;BME280;3249;42.690;23.260;2023-04-05T10:29:01;93964.00;;;3.26;100.00
6433;BME280;3249;42.690;23.260;2023-04-05T10:31:45;93970.03;;;3.61;100.00
6433;BME280;3249;42.690;23.260;2023-04-05T10:34:27;93965.41;;;3.71;94.90
6433;BME280;3249;42.690;23.260;2023-04-05T10:37:00;93950.84;;;3.23;100.00
6433;BME280;3249;42.690;23.260;2023-04-05T10:39:34;93953.13;;;3.53;98.49
6433;BME280;3249;42.690;23.260;2023-04-05T10:42:12;93963.00;;;2.92;100.00
6433;BME280;3249;42.690;23.260;2023-04-05T10:44:45;93957.19;;;2.62;100.00
6433;BME280;3249;42.690;23.260;2023-04-05T10:47:18;93966.16;;;3.44;100.00
6433;BME280;3249;42.690;23.260;2023-04-05T10:49:53;93971.78;;;3.60;98.12
6433;BME280;3249;42.690;23.260;2023-04-05T10:52:25;93981.53;;;3.36;100.00
6433;BME280;3249;42.690;23.260;2023-04-05T10:54:57;93976.34;;;3.65;95.91
6433;BME280;3249;42.690;23.260;2023-04-05T10:57:29;93956.88;;;3.57;92.08
6433;BME280;3249;42.690;23.260;2023-04-05T11:00:00;93969.06;;;3.62;93.55
6433;BME280;3249;42.690;23.260;2023-04-05T11:02:30;93957.56;;;3.66;91.69
6433;BME280;3249;42.690;23.260;2023-04-05T11:05:06;93981.78;;;3.83;93.82
6433;BME280;3249;42.690;23.260;2023-04-05T11:07:42;93986.28;;;3.81;91.75
6433;BME280;3249;42.690;23.260;2023-04-05T11:10:16;93995.47;;;3.61;90.97
6433;BME280;3249;42.690;23.260;2023-04-05T11:13:03;93973.16;;;3.21;92.56
6433;BME280;3249;42.690;23.260;2023-04-05T11:15:34;93945.84;;;2.94;97.23
6433;BME280;3249;42.690;23.260;2023-04-05T11:18:05;93998.41;;;3.22;95.07
6433;BME280;3249;42.690;23.260;2023-04-05T11:20:45;93962.00;;;2.86;99.99
6433;BME280;3249;42.690;23.260;2023-04-05T11:23:18;93976.06;;;3.03;100.00
6433;BME280;3249;42.690;23.260;2023-04-05T11:25:51;93978.00;;;3.37;99.34
6433;BME280;3249;42.690;23.260;2023-04-05T11:28:27;93991.13;;;3.19;100.00
6433;BME280;3249;42.690;23.260;2023-04-05T11:30:56;93980.91;;;3.34;100.00
6433;BME280;3249;42.690;23.260;2023-04-05T11:33:49;93971.78;;;2.75;100.00
6433;BME280;3249;42.690;23.260;2023-04-05T11:36:38;93973.97;;;3.42;99.22
6433;BME280;3249;42.690;23.260;2023-04-05T11:39:26;93932.13;;;3.09;96.42
6433;BME280;3249;42.690;23.260;2023-04-05T11:41:59;93975.47;;;3.37;96.54
6433;BME280;3249;42.690;23.260;2023-04-05T11:44:29;93979.34;;;3.54;95.09
6433;BME280;3249;42.690;23.260;2023-04-05T11:47:06;93970.38;;;3.58;94.60
6433;BME280;3249;42.690;23.260;2023-04-05T11:49:36;93978.25;;;4.05;93.40
6433;BME280;3249;42.690;23.260;2023-04-05T11:52:18;93956.44;;;4.23;87.97
6433;BME280;3249;42.690;23.260;2023-04-05T11:54:48;93972.72;;;4.22;87.58
6433;BME280;3249;42.690;23.260;2023-04-05T11:57:18;93990.31;;;4.17;87.10
6433;BME280;3249;42.690;23.260;2023-04-05T11:59:49;93974.28;;;3.96;88.10
6433;BME280;3249;42.690;23.260;2023-04-05T12:02:20;93983.94;;;4.28;90.35
6433;BME280;3249;42.690;23.260;2023-04-05T12:04:56;93979.78;;;4.27;88.34
6433;BME280;3249;42.690;23.260;2023-04-05T12:07:28;93975.13;;;4.30;87.34
6433;BME280;3249;42.690;23.260;2023-04-05T12:10:04;93970.34;;;3.93;96.10
6433;BME280;3249;42.690;23.260;2023-04-05T12:12:37;93976.94;;;3.67;99.41
6433;BME280;3249;42.690;23.260;2023-04-05T12:15:08;93974.03;;;3.70;100.00
6433;BME280;3249;42.690;23.260;2023-04-05T12:17:40;93982.09;;;4.22;98.59
6433;BME280;3249;42.690;23.260;2023-04-05T12:20:12;93980.34;;;4.22;94.53
6433;BME280;3249;42.690;23.260;2023-04-05T12:22:45;93975.13;;;3.61;99.21
6433;BME280;3249;42.690;23.260;2023-04-05T12:25:17;93974.13;;;3.83;97.20
6433;BME280;3249;42.690;23.260;2023-04-05T12:27:46;93970.28;;;3.66;99.53
6433;BME280;3249;42.690;23.260;2023-04-05T12:30:18;93978.44;;;3.61;100.00
6433;BME280;3249;42.690;23.260;2023-04-05T12:32:50;93986.63;;;3.57;100.00
6433;BME280;3249;42.690;23.260;2023-04-05T12:35:21;93979.78;;;3.57;99.54
6433;BME280;3249;42.690;23.260;2023-04-05T12:37:57;93966.28;;;3.36;100.00
6433;BME280;3249;42.690;23.260;2023-04-05T12:40:27;93972.88;;;3.16;100.00
6433;BME280;3249;42.690;23.260;2023-04-05T12:43:01;93974.16;;;3.62;100.00
6433;BME280;3249;42.690;23.260;2023-04-05T12:45:31;93923.97;;;3.35;94.50
6433;BME280;3249;42.690;23.260;2023-04-05T12:48:09;93967.00;;;3.72;99.27
6433;BME280;3249;42.690;23.260;2023-04-05T12:50:44;93979.91;;;3.70;100.00
6433;BME280;3249;42.690;23.260;2023-04-05T12:53:23;93971.44;;;3.63;100.00
6433;BME280;3249;42.690;23.260;2023-04-05T12:55:54;93979.19;;;3.76;97.20
6433;BME280;3249;42.690;23.260;2023-04-05T12:58:32;93986.28;;;3.81;96.37
6433;BME280;3249;42.690;23.260;2023-04-05T13:01:03;93977.09;;;3.65;91.37
6433;BME280;3249;42.690;23.260;2023-04-05T13:03:32;93998.44;;;3.43;95.67
6433;BME280;3249;42.690;23.260;2023-04-05T13:06:01;93987.56;;;3.70;92.67
6433;BME280;3249;42.690;23.260;2023-04-05T13:08:33;93998.19;;;3.80;90.48
6433;BME280;3249;42.690;23.260;2023-04-05T13:11:02;93999.00;;;3.81;91.14
6433;BME280;3249;42.690;23.260;2023-04-05T13:13:32;93999.97;;;3.80;89.76
6433;BME280;3249;42.690;23.260;2023-04-05T13:16:02;93986.13;;;3.47;91.19
6433;BME280;3249;42.690;23.260;2023-04-05T13:18:31;93985.53;;;3.66;92.71
6433;BME280;3249;42.690;23.260;2023-04-05T13:21:00;93983.84;;;3.73;91.33
6433;BME280;3249;42.690;23.260;2023-04-05T13:23:37;93993.19;;;4.08;87.36
6433;BME280;3249;42.690;23.260;2023-04-05T13:26:07;93996.69;;;3.65;90.57
6433;BME280;3249;42.690;23.260;2023-04-05T13:28:37;93983.63;;;3.53;92.05
6433;BME280;3249;42.690;23.260;2023-04-05T13:31:06;93975.81;;;3.34;95.04
6433;BME280;3249;42.690;23.260;2023-04-05T13:33:36;93987.50;;;3.64;97.13
6433;BME280;3249;42.690;23.260;2023-04-05T13:36:06;93981.47;;;3.71;92.95
6433;BME280;3249;42.690;23.260;2023-04-05T13:38:38;93979.09;;;3.28;100.00